Bf Esperanza — V2BR8 — position and weather

sailwx.info

Track history (hours):
 
Tides and Currents Weather Stations Pressure Air Temp Water Temp Dewpoint Dewpoint Depression Visibility Wind Speed Wind Dir Waves Ship Positions

Bf Esperanza

Last reported at 2015-Mar-31 07:32 UTC. Time now 2015-Mar-31 12:39 UTC.
Position N 34°14' W 007°13'.

Length 135 m; draft 8.4 m.

Type: Ship (hazmat cat A). MMSI: 304907000.

Date/timePositionNaut miles runAvg speedWind from/ knotsBaromVisibWave heightAir tempDewpointWater temp
2015-Mar-31 07:32N 34°14' W 007°13'4012.8
2015-Mar-31 04:23N 34°48' W 006°46'9112.7
2015-Mar-30 21:14N 35°57' W 005°35'4 0.4
2015-Mar-30 10:32N 35°53' W 005°34'6 6.0
2015-Mar-30 09:33N 35°58' W 005°30'10 9.6
2015-Mar-30 08:33N 36°01' W 005°18'18713.1
2015-Mar-29 18:16N 36°51' W 001°35'1115.6
2015-Mar-29 17:33N 36°59' W 001°24'1615.8
2015-Mar-29 16:31N 37°09' W 001°09'1515.8
2015-Mar-29 15:33N 37°20' W 000°55'1716.6
2015-Mar-29 14:33N 37°30' W 000°39'1616.3
2015-Mar-29 13:33N 37°43' W 000°26'1616.3
2015-Mar-29 12:33N 37°57' W 000°15'10016.3
2015-Mar-29 06:25N 39°19' E 000°58'2116.1
2015-Mar-29 05:06N 39°37' E 001°14'916.2
2015-Mar-29 04:33N 39°44' E 001°21'1716.4
2015-Mar-29 03:33N 39°57' E 001°34'1616.3
2015-Mar-29 02:33N 40°10' E 001°46'1616.1
2015-Mar-29 01:33N 40°23' E 001°59'1616.2
2015-Mar-29 00:33N 40°36' E 002°12'1515.4
2015-Mar-28 23:33N 40°48' E 002°24'1615.6
2015-Mar-28 22:30N 41°02' E 002°36'2016.2
2015-Mar-28 21:15N 41°18' E 002°52'1617.1
2015-Mar-28 20:20N 41°31' E 003°04'1517.2
2015-Mar-28 19:29N 41°43' E 003°15'1515.4
2015-Mar-28 18:29N 41°57' E 003°23'1516.2
2015-Mar-28 17:32N 42°12' E 003°26'1616.0
2015-Mar-28 16:33N 42°28' E 003°26'1716.0
2015-Mar-28 15:31N 42°44' E 003°26'1615.8
2015-Mar-28 14:31N 43°00' E 003°27'1413.9
2015-Mar-28 13:32N 43°03' E 003°45'1514.7
2015-Mar-28 12:33N 43°05' E 004°04'1514.8
2015-Mar-28 11:34N 43°07' E 004°24'1615.5
2015-Mar-28 10:33N 43°09' E 004°45'1514.8
2015-Mar-28 09:33N 43°11' E 005°06'1313.2
2015-Mar-28 08:33N 43°21' E 005°18'1 1.3
2015-Mar-28 07:26N 43°21' E 005°20'0 0.0
2015-Mar-28 06:07N 43°21' E 005°20'0 0.0
2015-Mar-28 05:25N 43°21' E 005°20'0 0.0
2015-Mar-28 04:33N 43°21' E 005°20'0 0.0
2015-Mar-28 03:24N 43°21' E 005°20'0 0.0
2015-Mar-28 02:26N 43°21' E 005°20'0 0.0
2015-Mar-28 01:29N 43°21' E 005°20'0 0.0
2015-Mar-28 00:29N 43°21' E 005°20'0 0.0
2015-Mar-27 23:28N 43°21' E 005°20'0 0.0
2015-Mar-27 22:22N 43°21' E 005°20'0 0.0
2015-Mar-27 21:33N 43°21' E 005°20'0 0.0
2015-Mar-27 20:21N 43°21' E 005°20'0 0.0
2015-Mar-27 19:32N 43°21' E 005°20'0 0.0
2015-Mar-27 18:29N 43°21' E 005°20'0 0.0
2015-Mar-27 17:26N 43°21' E 005°20'0 0.0
2015-Mar-27 16:31N 43°21' E 005°20'0 0.0
2015-Mar-27 15:19N 43°21' E 005°20'0 0.0
2015-Mar-27 14:30N 43°21' E 005°20'0 0.0
2015-Mar-27 13:30N 43°21' E 005°20'0 0.0
2015-Mar-27 12:29N 43°21' E 005°20'0 0.0
2015-Mar-27 11:29N 43°21' E 005°20'0 0.0
2015-Mar-27 10:29N 43°21' E 005°20'0 0.0
2015-Mar-27 09:31N 43°21' E 005°20'0 0.0
2015-Mar-27 08:25N 43°21' E 005°20'0 0.0
2015-Mar-27 07:33N 43°21' E 005°20'0 0.0
2015-Mar-27 06:33N 43°21' E 005°20'0 0.0
2015-Mar-27 05:14N 43°21' E 005°20'0 0.0
2015-Mar-27 04:23N 43°21' E 005°20'0 0.0
2015-Mar-27 03:22N 43°21' E 005°20'0 0.0
2015-Mar-27 02:25N 43°21' E 005°20'0 0.0
2015-Mar-27 01:31N 43°21' E 005°20'0 0.0
2015-Mar-27 00:30N 43°21' E 005°20'0 0.0
2015-Mar-26 23:24N 43°21' E 005°20'0 0.0
2015-Mar-26 22:29N 43°21' E 005°20'0 0.0
2015-Mar-26 21:29N 43°21' E 005°20'0 0.0
2015-Mar-26 20:04N 43°21' E 005°20'0 0.0
2015-Mar-26 19:31N 43°21' E 005°20'5 5.4
2015-Mar-26 18:33N 43°18' E 005°14'1614.1
2015-Mar-26 17:25N 43°10' E 004°55'2116.2
2015-Mar-26 16:07N 43°07' E 004°27'916.4
2015-Mar-26 15:33N 43°06' E 004°14'1515.6
2015-Mar-26 14:33N 43°04' E 003°53'1616.2
2015-Mar-26 13:33N 43°01' E 003°31'1311.4
2015-Mar-26 12:28N 42°49' E 003°27'1112.4
2015-Mar-26 11:33N 42°38' E 003°27'1312.6
2015-Mar-26 10:33N 42°25' E 003°28'1111.3
2015-Mar-26 09:33N 42°14' E 003°26'2110.3
2015-Mar-26 07:29N 41°53' E 003°23'1010.3
2015-Mar-26 06:33N 41°46' E 003°13'1813.3
2015-Mar-26 05:14N 41°36' E 002°54'1013.5
2015-Mar-26 04:29N 41°31' E 002°42'2711.4
2015-Mar-26 02:08N 41°19' E 002°10'2 0.3
2015-Mar-25 18:31N 41°21' E 002°10'10 1.3
2015-Mar-25 10:20N 41°20' E 002°24'1413.8
2015-Mar-25 09:17N 41°26' E 002°41'2514.2
2015-Mar-25 07:30N 41°39' E 003°10'1414.5
2015-Mar-25 06:32N 41°50' E 003°22'4212.3
2015-Mar-25 03:06N 42°31' E 003°07'0 0.0
2015-Mar-24 22:24N 42°31' E 003°07'0 0.0
2015-Mar-24 19:10N 42°31' E 003°07'0 0.0
2015-Mar-24 18:33N 42°31' E 003°07'0 0.0
2015-Mar-24 17:32N 42°31' E 003°07'0 0.0
2015-Mar-24 14:07N 42°31' E 003°07'0 0.0
2015-Mar-24 12:24N 42°31' E 003°07'0 0.0
2015-Mar-24 11:18N 42°31' E 003°07'0 0.0
2015-Mar-24 10:17N 42°31' E 003°07'0 0.0
2015-Mar-24 09:23N 42°31' E 003°07'0 0.0
2015-Mar-23 17:04N 42°31' E 003°07'0 0.0
2015-Mar-23 12:14N 42°31' E 003°07'0 0.0
2015-Mar-23 06:29N 42°31' E 003°07'70 9.5
2015-Mar-22 23:11N 41°22' E 002°55'914.0
2015-Mar-22 22:33N 41°15' E 002°48'1414.1
2015-Mar-22 21:33N 41°03' E 002°38'1514.5
2015-Mar-22 20:33N 40°52' E 002°26'1414.3
2015-Mar-22 19:33N 40°40' E 002°15'1414.4
2015-Mar-22 18:33N 40°28' E 002°04'1514.6
2015-Mar-22 17:33N 40°17' E 001°52'1515.3
2015-Mar-22 16:33N 40°05' E 001°40'1514.9
2015-Mar-22 15:34N 39°52' E 001°29'12815.1
2015-Mar-22 07:03N 38°06' W 000°03'715.2
2015-Mar-22 06:33N 37°60' W 000°08'1615.7
2015-Mar-22 05:33N 37°47' W 000°19'1715.9
2015-Mar-22 04:31N 37°33' W 000°31'1415.1
2015-Mar-22 03:34N 37°23' W 000°45'1615.8
2015-Mar-22 02:33N 37°13' W 000°59'21515.4
2015-Mar-21 12:34N 35°59' W 005°11'  
Track history (hours):
 
Tides and Currents Weather Stations Pressure Air Temp Water Temp Dewpoint Dewpoint Depression Visibility Wind Speed Wind Dir Waves Ship Positions

Bf Esperanza

Last reported at 2015-Mar-31 07:32 UTC. Time now 2015-Mar-31 12:39 UTC.
Position N 34°14' W 007°13'.

Length 135 m; draft 8.4 m.

Type: Ship (hazmat cat A). MMSI: 304907000.

Date/timePositionNaut miles runAvg speedWind from/ knotsBaromVisibWave heightAir tempDewpointWater temp
2015-Mar-31 07:32N 34°14' W 007°13'4012.8
2015-Mar-31 04:23N 34°48' W 006°46'9112.7
2015-Mar-30 21:14N 35°57' W 005°35'4 0.4
2015-Mar-30 10:32N 35°53' W 005°34'6 6.0
2015-Mar-30 09:33N 35°58' W 005°30'10 9.6
2015-Mar-30 08:33N 36°01' W 005°18'18713.1
2015-Mar-29 18:16N 36°51' W 001°35'1115.6
2015-Mar-29 17:33N 36°59' W 001°24'1615.8
2015-Mar-29 16:31N 37°09' W 001°09'1515.8
2015-Mar-29 15:33N 37°20' W 000°55'1716.6
2015-Mar-29 14:33N 37°30' W 000°39'1616.3
2015-Mar-29 13:33N 37°43' W 000°26'1616.3
2015-Mar-29 12:33N 37°57' W 000°15'10016.3
2015-Mar-29 06:25N 39°19' E 000°58'2116.1
2015-Mar-29 05:06N 39°37' E 001°14'916.2
2015-Mar-29 04:33N 39°44' E 001°21'1716.4
2015-Mar-29 03:33N 39°57' E 001°34'1616.3
2015-Mar-29 02:33N 40°10' E 001°46'1616.1
2015-Mar-29 01:33N 40°23' E 001°59'1616.2
2015-Mar-29 00:33N 40°36' E 002°12'1515.4
2015-Mar-28 23:33N 40°48' E 002°24'1615.6
2015-Mar-28 22:30N 41°02' E 002°36'2016.2
2015-Mar-28 21:15N 41°18' E 002°52'1617.1
2015-Mar-28 20:20N 41°31' E 003°04'1517.2
2015-Mar-28 19:29N 41°43' E 003°15'1515.4
2015-Mar-28 18:29N 41°57' E 003°23'1516.2
2015-Mar-28 17:32N 42°12' E 003°26'1616.0
2015-Mar-28 16:33N 42°28' E 003°26'1716.0
2015-Mar-28 15:31N 42°44' E 003°26'1615.8
2015-Mar-28 14:31N 43°00' E 003°27'1413.9
2015-Mar-28 13:32N 43°03' E 003°45'1514.7
2015-Mar-28 12:33N 43°05' E 004°04'1514.8
2015-Mar-28 11:34N 43°07' E 004°24'1615.5
2015-Mar-28 10:33N 43°09' E 004°45'1514.8
2015-Mar-28 09:33N 43°11' E 005°06'1313.2
2015-Mar-28 08:33N 43°21' E 005°18'1 1.3
2015-Mar-28 07:26N 43°21' E 005°20'0 0.0
2015-Mar-28 06:07N 43°21' E 005°20'0 0.0
2015-Mar-28 05:25N 43°21' E 005°20'0 0.0
2015-Mar-28 04:33N 43°21' E 005°20'0 0.0
2015-Mar-28 03:24N 43°21' E 005°20'0 0.0
2015-Mar-28 02:26N 43°21' E 005°20'0 0.0
2015-Mar-28 01:29N 43°21' E 005°20'0 0.0
2015-Mar-28 00:29N 43°21' E 005°20'0 0.0
2015-Mar-27 23:28N 43°21' E 005°20'0 0.0
2015-Mar-27 22:22N 43°21' E 005°20'0 0.0
2015-Mar-27 21:33N 43°21' E 005°20'0 0.0
2015-Mar-27 20:21N 43°21' E 005°20'0 0.0
2015-Mar-27 19:32N 43°21' E 005°20'0 0.0
2015-Mar-27 18:29N 43°21' E 005°20'0 0.0
2015-Mar-27 17:26N 43°21' E 005°20'0 0.0
2015-Mar-27 16:31N 43°21' E 005°20'0 0.0
2015-Mar-27 15:19N 43°21' E 005°20'0 0.0
2015-Mar-27 14:30N 43°21' E 005°20'0 0.0
2015-Mar-27 13:30N 43°21' E 005°20'0 0.0
2015-Mar-27 12:29N 43°21' E 005°20'0 0.0
2015-Mar-27 11:29N 43°21' E 005°20'0 0.0
2015-Mar-27 10:29N 43°21' E 005°20'0 0.0
2015-Mar-27 09:31N 43°21' E 005°20'0 0.0
2015-Mar-27 08:25N 43°21' E 005°20'0 0.0
2015-Mar-27 07:33N 43°21' E 005°20'0 0.0
2015-Mar-27 06:33N 43°21' E 005°20'0 0.0
2015-Mar-27 05:14N 43°21' E 005°20'0 0.0
2015-Mar-27 04:23N 43°21' E 005°20'0 0.0
2015-Mar-27 03:22N 43°21' E 005°20'0 0.0
2015-Mar-27 02:25N 43°21' E 005°20'0 0.0
2015-Mar-27 01:31N 43°21' E 005°20'0 0.0
2015-Mar-27 00:30N 43°21' E 005°20'0 0.0
2015-Mar-26 23:24N 43°21' E 005°20'0 0.0
2015-Mar-26 22:29N 43°21' E 005°20'0 0.0
2015-Mar-26 21:29N 43°21' E 005°20'0 0.0
2015-Mar-26 20:04N 43°21' E 005°20'0 0.0
2015-Mar-26 19:31N 43°21' E 005°20'5 5.4
2015-Mar-26 18:33N 43°18' E 005°14'1614.1
2015-Mar-26 17:25N 43°10' E 004°55'2116.2
2015-Mar-26 16:07N 43°07' E 004°27'916.4
2015-Mar-26 15:33N 43°06' E 004°14'1515.6
2015-Mar-26 14:33N 43°04' E 003°53'1616.2
2015-Mar-26 13:33N 43°01' E 003°31'1311.4
2015-Mar-26 12:28N 42°49' E 003°27'1112.4
2015-Mar-26 11:33N 42°38' E 003°27'1312.6
2015-Mar-26 10:33N 42°25' E 003°28'1111.3
2015-Mar-26 09:33N 42°14' E 003°26'2110.3
2015-Mar-26 07:29N 41°53' E 003°23'1010.3
2015-Mar-26 06:33N 41°46' E 003°13'1813.3
2015-Mar-26 05:14N 41°36' E 002°54'1013.5
2015-Mar-26 04:29N 41°31' E 002°42'2711.4
2015-Mar-26 02:08N 41°19' E 002°10'2 0.3
2015-Mar-25 18:31N 41°21' E 002°10'10 1.3
2015-Mar-25 10:20N 41°20' E 002°24'1413.8
2015-Mar-25 09:17N 41°26' E 002°41'2514.2
2015-Mar-25 07:30N 41°39' E 003°10'1414.5
2015-Mar-25 06:32N 41°50' E 003°22'4212.3
2015-Mar-25 03:06N 42°31' E 003°07'0 0.0
2015-Mar-24 22:24N 42°31' E 003°07'0 0.0
2015-Mar-24 19:10N 42°31' E 003°07'0 0.0
2015-Mar-24 18:33N 42°31' E 003°07'0 0.0
2015-Mar-24 17:32N 42°31' E 003°07'0 0.0
2015-Mar-24 14:07N 42°31' E 003°07'0 0.0
2015-Mar-24 12:24N 42°31' E 003°07'0 0.0
2015-Mar-24 11:18N 42°31' E 003°07'0 0.0
2015-Mar-24 10:17N 42°31' E 003°07'0 0.0
2015-Mar-24 09:23N 42°31' E 003°07'0 0.0
2015-Mar-23 17:04N 42°31' E 003°07'0 0.0
2015-Mar-23 12:14N 42°31' E 003°07'0 0.0
2015-Mar-23 06:29N 42°31' E 003°07'70 9.5
2015-Mar-22 23:11N 41°22' E 002°55'914.0
2015-Mar-22 22:33N 41°15' E 002°48'1414.1
2015-Mar-22 21:33N 41°03' E 002°38'1514.5
2015-Mar-22 20:33N 40°52' E 002°26'1414.3
2015-Mar-22 19:33N 40°40' E 002°15'1414.4
2015-Mar-22 18:33N 40°28' E 002°04'1514.6
2015-Mar-22 17:33N 40°17' E 001°52'1515.3
2015-Mar-22 16:33N 40°05' E 001°40'1514.9
2015-Mar-22 15:34N 39°52' E 001°29'12815.1
2015-Mar-22 07:03N 38°06' W 000°03'715.2
2015-Mar-22 06:33N 37°60' W 000°08'1615.7
2015-Mar-22 05:33N 37°47' W 000°19'1715.9
2015-Mar-22 04:31N 37°33' W 000°31'1415.1
2015-Mar-22 03:34N 37°23' W 000°45'1615.8
2015-Mar-22 02:33N 37°13' W 000°59'21515.4
2015-Mar-21 12:34N 35°59' W 005°11'  

Dump ship's entire track history